createdAt,value
2022-12-08T00:01:18.782Z,4.80
2022-12-08T00:03:48.502Z,4.28
2022-12-08T00:06:43.653Z,5.85
2022-12-08T00:09:25.330Z,3.60
2022-12-08T00:11:59.388Z,3.15
2022-12-08T00:14:31.623Z,3.00
2022-12-08T00:17:02.224Z,1.00
2022-12-08T00:19:31.769Z,4.65
2022-12-08T00:22:01.251Z,4.40
2022-12-08T00:24:33.043Z,4.80
2022-12-08T00:27:02.439Z,5.07
2022-12-08T00:29:31.174Z,1.90
2022-12-08T00:32:01.548Z,4.93
2022-12-08T00:34:30.251Z,3.20
2022-12-08T00:36:59.198Z,1.77
2022-12-08T00:39:28.127Z,2.10
2022-12-08T00:42:15.647Z,6.47
2022-12-08T00:44:46.467Z,2.95
2022-12-08T00:47:21.015Z,4.90
2022-12-08T00:49:52.706Z,4.20
2022-12-08T00:52:21.870Z,4.60
2022-12-08T00:54:50.875Z,4.72
2022-12-08T00:57:19.482Z,2.35
2022-12-08T00:59:48.582Z,4.53
2022-12-08T01:02:18.454Z,8.80
2022-12-08T01:04:47.527Z,7.18
2022-12-08T01:07:16.387Z,7.85
2022-12-08T01:09:45.365Z,1.98
2022-12-08T01:12:14.150Z,4.30
2022-12-08T01:14:43.052Z,2.70
2022-12-08T01:17:11.718Z,5.25
2022-12-08T01:19:42.354Z,2.50
2022-12-08T01:22:10.976Z,3.70
2022-12-08T01:24:40.242Z,5.40
2022-12-08T01:27:08.801Z,6.25
2022-12-08T01:29:38.189Z,5.22
2022-12-08T01:32:07.049Z,5.60
2022-12-08T01:34:36.505Z,4.72
2022-12-08T01:37:07.126Z,3.63
2022-12-08T01:39:36.678Z,0.85
2022-12-08T01:42:05.689Z,2.03
2022-12-08T01:45:03.967Z,2.47
2022-12-08T01:47:39.311Z,3.00
2022-12-08T01:50:11.943Z,1.70
2022-12-08T01:52:44.195Z,2.47
2022-12-08T01:55:17.812Z,2.65
2022-12-08T01:57:50.464Z,2.38
2022-12-08T02:00:22.707Z,0.55
2022-12-08T02:02:56.510Z,1.90
2022-12-08T02:05:29.241Z,1.10
2022-12-08T02:08:04.509Z,0.73
2022-12-08T02:10:36.679Z,5.97
2022-12-08T02:13:07.450Z,0.90
2022-12-08T02:15:42.182Z,3.10
2022-12-08T02:18:29.208Z,5.28
2022-12-08T02:21:05.570Z,4.82
2022-12-08T02:23:47.519Z,3.63
2022-12-08T02:26:52.780Z,3.80
2022-12-08T02:29:43.023Z,6.63
2022-12-08T02:32:34.189Z,5.63
2022-12-08T02:35:11.914Z,2.85
2022-12-08T02:37:45.694Z,9.07
2022-12-08T02:40:20.801Z,5.78
2022-12-08T02:42:56.989Z,7.93
2022-12-08T02:45:31.917Z,7.15
2022-12-08T02:48:02.285Z,7.68
2022-12-08T02:50:32.583Z,3.92
2022-12-08T02:53:02.375Z,3.38
2022-12-08T02:55:39.792Z,5.23
2022-12-08T02:58:27.847Z,4.95
2022-12-08T03:01:13.747Z,2.15
2022-12-08T03:03:52.514Z,1.90
2022-12-08T03:06:30.516Z,2.28
2022-12-08T03:09:03.651Z,2.77
2022-12-08T03:11:38.606Z,3.80
2022-12-08T03:14:10.303Z,3.15
2022-12-08T03:16:44.171Z,3.67
2022-12-08T03:19:20.162Z,1.67
2022-12-08T03:21:55.339Z,3.37
2022-12-08T03:24:24.625Z,2.53
2022-12-08T03:26:59.125Z,1.48
2022-12-08T03:29:28.577Z,3.38
2022-12-08T03:32:00.033Z,5.00
2022-12-08T03:34:31.053Z,2.03
2022-12-08T03:37:02.777Z,2.55
2022-12-08T03:39:31.950Z,3.50
2022-12-08T03:42:00.931Z,4.50
2022-12-08T03:44:29.801Z,2.70
2022-12-08T03:46:58.294Z,2.87
2022-12-08T03:49:27.474Z,1.25
2022-12-08T03:51:56.485Z,1.92
2022-12-08T03:54:26.919Z,0.82
2022-12-08T03:56:56.148Z,2.92
2022-12-08T03:59:24.859Z,3.57
2022-12-08T04:01:53.787Z,4.43
2022-12-08T04:04:22.838Z,4.40
2022-12-08T04:06:52.299Z,1.50
2022-12-08T04:09:20.929Z,2.30
2022-12-08T04:11:51.127Z,1.47
2022-12-08T04:14:19.885Z,3.45
2022-12-08T04:16:49.114Z,5.57
2022-12-08T04:19:18.147Z,2.50
2022-12-08T04:21:46.924Z,1.88
2022-12-08T04:24:15.484Z,3.07
2022-12-08T04:26:44.587Z,1.95
2022-12-08T04:29:14.805Z,2.20
2022-12-08T04:31:43.996Z,4.00
2022-12-08T04:34:12.654Z,1.77
2022-12-08T04:36:41.702Z,1.10
2022-12-08T04:39:10.230Z,0.70
2022-12-08T04:41:39.293Z,1.73
2022-12-08T04:44:08.105Z,1.60
2022-12-08T04:46:43.132Z,4.18
2022-12-08T04:49:12.433Z,3.30
2022-12-08T04:51:41.288Z,1.85
2022-12-08T04:54:10.579Z,1.23
2022-12-08T04:56:39.345Z,0.77
2022-12-08T04:59:08.138Z,1.77
2022-12-08T05:01:36.815Z,2.60
2022-12-08T05:04:07.396Z,2.38
2022-12-08T05:06:35.951Z,3.65
2022-12-08T05:09:04.872Z,0.75
2022-12-08T05:11:33.554Z,1.38
2022-12-08T05:14:02.777Z,3.17
2022-12-08T05:16:31.687Z,6.72
2022-12-08T05:19:00.558Z,3.53
2022-12-08T05:21:30.786Z,1.77
2022-12-08T05:23:59.826Z,1.55
2022-12-08T05:26:28.840Z,1.67
2022-12-08T05:28:57.921Z,4.00
2022-12-08T05:31:26.860Z,4.43
2022-12-08T05:34:00.972Z,2.15
2022-12-08T05:36:33.285Z,6.45
2022-12-08T05:39:02.448Z,9.23
2022-12-08T05:41:31.546Z,6.30
2022-12-08T05:44:00.259Z,4.43
2022-12-08T05:46:29.260Z,5.65
2022-12-08T05:48:58.349Z,1.90
2022-12-08T05:51:27.911Z,3.60
2022-12-08T05:53:58.187Z,4.38
2022-12-08T05:56:27.189Z,3.88
2022-12-08T05:58:55.810Z,4.28
2022-12-08T06:01:27.788Z,5.65
2022-12-08T06:03:58.220Z,3.20
2022-12-08T06:06:27.074Z,6.53
2022-12-08T06:08:57.780Z,4.10
2022-12-08T06:11:29.323Z,2.47
2022-12-08T06:13:59.008Z,2.47
2022-12-08T06:16:29.179Z,2.73
2022-12-08T06:18:58.661Z,3.40
2022-12-08T06:21:27.388Z,4.88
2022-12-08T06:23:57.961Z,2.22
2022-12-08T06:26:26.997Z,1.85
2022-12-08T06:28:55.733Z,3.30
2022-12-08T06:31:26.321Z,3.90
2022-12-08T06:33:56.183Z,4.30
2022-12-08T06:36:28.134Z,4.03
2022-12-08T06:38:58.802Z,2.13
2022-12-08T06:41:27.530Z,4.60
2022-12-08T06:43:57.564Z,3.15
2022-12-08T06:46:26.238Z,2.65
2022-12-08T06:48:55.464Z,3.80
2022-12-08T06:51:24.382Z,3.45
2022-12-08T06:53:53.197Z,1.37
2022-12-08T06:56:28.134Z,4.13
2022-12-08T06:58:57.874Z,3.85
2022-12-08T07:01:26.794Z,3.45
2022-12-08T07:03:55.676Z,4.18
2022-12-08T07:06:25.812Z,5.23
2022-12-08T07:08:54.895Z,4.18
2022-12-08T07:11:25.546Z,2.30
2022-12-08T07:13:56.890Z,5.88
2022-12-08T07:16:26.196Z,5.63
2022-12-08T07:18:54.787Z,2.90
2022-12-08T07:21:23.636Z,5.93
2022-12-08T07:23:57.366Z,5.88
2022-12-08T07:26:28.766Z,3.75
2022-12-08T07:28:57.358Z,4.22
2022-12-08T07:31:28.093Z,2.17
2022-12-08T07:33:58.721Z,3.42
2022-12-08T07:36:28.267Z,4.18
2022-12-08T07:38:57.306Z,4.25
2022-12-08T07:41:27.408Z,3.90
2022-12-08T07:43:58.549Z,2.97
2022-12-08T07:46:28.122Z,4.30
2022-12-08T07:48:57.345Z,6.22
2022-12-08T07:51:26.661Z,4.35
2022-12-08T07:53:55.479Z,5.03
2022-12-08T07:56:25.083Z,8.40
2022-12-08T07:58:54.178Z,4.78
2022-12-08T08:01:27.278Z,3.22
2022-12-08T08:03:57.610Z,5.18
2022-12-08T08:06:26.258Z,4.03
2022-12-08T08:08:55.860Z,7.37
2022-12-08T08:11:24.983Z,4.60
2022-12-08T08:13:54.541Z,3.30
2022-12-08T08:16:24.551Z,3.33
2022-12-08T08:18:54.328Z,6.20
2022-12-08T08:24:13.992Z,6.80
2022-12-08T08:26:42.666Z,5.82
2022-12-08T08:29:12.475Z,4.15
2022-12-08T08:31:42.769Z,9.60
2022-12-08T08:34:12.831Z,7.20
2022-12-08T08:36:41.915Z,4.15
2022-12-08T08:39:12.735Z,4.32
2022-12-08T08:41:41.642Z,5.43
2022-12-08T08:44:11.451Z,5.75
2022-12-08T08:46:40.188Z,4.37
2022-12-08T08:49:11.072Z,5.15
2022-12-08T08:51:40.015Z,7.97
2022-12-08T08:54:08.787Z,7.10
2022-12-08T08:56:37.755Z,4.80
2022-12-08T08:59:06.330Z,4.30
2022-12-08T09:01:35.887Z,3.72
2022-12-08T09:04:04.670Z,4.88
2022-12-08T09:06:35.724Z,4.50
2022-12-08T09:09:04.788Z,7.53
2022-12-08T09:11:34.485Z,4.63
2022-12-08T09:14:03.463Z,4.15
2022-12-08T09:16:35.134Z,3.78
2022-12-08T09:19:08.527Z,6.93
2022-12-08T09:21:38.562Z,6.78
2022-12-08T09:24:10.765Z,7.53
2022-12-08T09:26:39.818Z,6.13
2022-12-08T09:29:08.374Z,5.53
2022-12-08T09:31:37.814Z,8.98
2022-12-08T09:34:06.772Z,1.58
2022-12-08T09:36:38.289Z,4.10
2022-12-08T09:39:06.951Z,7.00
2022-12-08T09:41:44.761Z,6.22
2022-12-08T09:44:35.576Z,6.93
2022-12-08T09:47:10.776Z,15.40
2022-12-08T09:49:43.464Z,10.27
2022-12-08T09:52:22.712Z,7.30
2022-12-08T09:54:53.211Z,4.40
2022-12-08T09:57:24.062Z,7.10
2022-12-08T09:59:57.371Z,5.35
2022-12-08T10:02:31.268Z,4.20
2022-12-08T10:05:01.361Z,4.85
2022-12-08T10:07:40.494Z,6.10
2022-12-08T10:10:22.581Z,4.13
2022-12-08T10:12:56.558Z,3.25
2022-12-08T10:15:38.368Z,5.30
2022-12-08T10:18:15.520Z,5.88
2022-12-08T10:20:51.437Z,3.25
2022-12-08T10:23:28.937Z,3.85
2022-12-08T10:26:02.853Z,5.55
2022-12-08T10:28:36.699Z,4.30
2022-12-08T10:31:08.211Z,4.22
2022-12-08T10:33:36.917Z,7.70
2022-12-08T10:36:05.706Z,5.47
2022-12-08T10:38:38.055Z,5.03
2022-12-08T10:41:12.888Z,4.50
2022-12-08T10:43:47.855Z,4.45
2022-12-08T10:46:19.769Z,2.38
2022-12-08T10:48:53.468Z,3.67
2022-12-08T10:51:39.221Z,5.28
2022-12-08T10:54:28.449Z,2.73
2022-12-08T10:56:59.125Z,3.20
2022-12-08T10:59:28.332Z,7.53
2022-12-08T11:01:58.948Z,7.78
2022-12-08T11:04:35.940Z,6.22
2022-12-08T11:07:07.099Z,3.83
2022-12-08T11:09:46.923Z,5.90
2022-12-08T11:12:17.250Z,4.03
2022-12-08T11:14:51.583Z,4.30
2022-12-08T11:17:27.150Z,3.47
2022-12-08T11:20:01.683Z,4.50
2022-12-08T11:22:34.378Z,7.35
2022-12-08T11:25:19.037Z,7.40
2022-12-08T11:27:50.237Z,6.55
2022-12-08T11:30:22.751Z,5.10
2022-12-08T11:32:56.228Z,2.10
2022-12-08T11:35:28.319Z,5.85
2022-12-08T11:38:20.608Z,5.38
2022-12-08T11:40:54.585Z,5.93
2022-12-08T11:43:29.382Z,5.07
2022-12-08T11:46:03.083Z,4.87
2022-12-08T11:48:37.542Z,6.20
2022-12-08T11:51:13.743Z,6.60
2022-12-08T11:53:48.383Z,3.75
2022-12-08T11:56:23.302Z,3.60
2022-12-08T11:58:55.375Z,6.97
2022-12-08T12:01:27.017Z,6.13
2022-12-08T12:04:04.430Z,4.88
2022-12-08T12:07:12.261Z,3.03
2022-12-08T12:09:58.202Z,2.75
2022-12-08T12:12:44.239Z,4.40
2022-12-08T12:15:37.792Z,7.63
2022-12-08T12:18:16.804Z,6.75
2022-12-08T12:20:53.618Z,8.02
2022-12-08T12:23:25.993Z,7.57
2022-12-08T12:25:58.300Z,3.83
2022-12-08T12:28:35.567Z,4.13
2022-12-08T12:31:08.345Z,5.13
2022-12-08T12:33:38.489Z,4.13
2022-12-08T12:36:10.782Z,5.43
2022-12-08T12:39:07.886Z,5.83
2022-12-08T12:41:44.178Z,7.10
2022-12-08T12:44:40.787Z,6.07
2022-12-08T12:47:14.976Z,4.82
2022-12-08T12:50:06.740Z,5.65
2022-12-08T12:52:46.655Z,6.10
2022-12-08T12:55:31.611Z,7.53
2022-12-08T12:58:05.550Z,3.45
2022-12-08T13:00:36.148Z,4.53
2022-12-08T13:03:05.365Z,4.82
2022-12-08T13:05:47.254Z,4.50
2022-12-08T13:08:23.209Z,7.00
2022-12-08T13:11:02.065Z,4.70
2022-12-08T13:13:31.439Z,8.80
2022-12-08T13:16:18.602Z,4.93
2022-12-08T13:18:51.165Z,8.23
2022-12-08T13:21:23.008Z,6.07
2022-12-08T13:24:13.205Z,4.90
2022-12-08T13:26:45.561Z,4.15
2022-12-08T13:29:21.154Z,4.07
2022-12-08T13:31:54.193Z,5.83
2022-12-08T13:34:30.019Z,4.28
2022-12-08T13:37:10.405Z,5.20
2022-12-08T13:39:46.664Z,1.60
2022-12-08T13:42:22.092Z,4.43
2022-12-08T13:48:20.364Z,8.80
2022-12-08T13:51:23.782Z,4.90
2022-12-08T13:59:28.728Z,5.50
2022-12-08T14:02:00.063Z,3.28
2022-12-08T14:05:09.162Z,5.72
2022-12-08T14:07:20.204Z,2.63
2022-12-08T14:09:49.438Z,4.03
2022-12-08T14:12:22.119Z,5.63
2022-12-08T14:15:03.319Z,3.20
2022-12-08T14:17:33.280Z,4.85
2022-12-08T14:20:17.931Z,4.03
2022-12-08T14:22:47.235Z,4.78
2022-12-08T14:25:18.230Z,4.60
2022-12-08T14:27:48.359Z,4.53
2022-12-08T14:30:22.340Z,6.75
2022-12-08T14:32:54.224Z,5.88
2022-12-08T14:35:27.073Z,5.75
2022-12-08T14:37:58.822Z,5.97
2022-12-08T14:40:33.832Z,5.43
2022-12-08T14:43:17.055Z,9.35
2022-12-08T14:45:50.939Z,5.28
2022-12-08T14:48:23.778Z,5.32
2022-12-08T14:51:03.017Z,6.20
2022-12-08T14:53:39.976Z,6.50
2022-12-08T14:56:11.358Z,7.47
2022-12-08T14:58:40.477Z,5.53
2022-12-08T15:01:10.641Z,8.93
2022-12-08T15:03:39.690Z,7.07
2022-12-08T15:06:10.734Z,4.63
2022-12-08T15:08:54.311Z,5.88
2022-12-08T15:11:34.141Z,4.80
2022-12-08T15:14:04.092Z,8.50
2022-12-08T15:16:40.832Z,5.97
2022-12-08T15:19:20.258Z,7.53
2022-12-08T15:21:50.664Z,5.07
2022-12-08T15:24:20.901Z,5.13
2022-12-08T15:26:51.834Z,4.93
2022-12-08T15:29:23.315Z,6.43
2022-12-08T15:31:54.006Z,7.13
2022-12-08T15:34:23.415Z,6.15
2022-12-08T15:36:55.179Z,6.75
2022-12-08T15:39:33.148Z,7.25
2022-12-08T15:42:03.532Z,7.40
2022-12-08T15:44:33.048Z,9.02
2022-12-08T15:47:02.660Z,8.95
2022-12-08T15:49:31.492Z,10.57
2022-12-08T15:52:11.188Z,11.38
2022-12-08T15:54:41.239Z,8.77
2022-12-08T15:57:33.217Z,10.95
2022-12-08T16:00:51.380Z,9.98
2022-12-08T16:03:59.864Z,8.80
2022-12-08T16:09:14.907Z,8.30
2022-12-08T16:12:07.028Z,7.30
2022-12-08T16:17:27.554Z,9.18
2022-12-08T16:19:56.674Z,8.98
2022-12-08T16:25:20.352Z,9.73
2022-12-08T16:28:08.406Z,9.57
2022-12-08T16:30:42.579Z,9.80
2022-12-08T16:33:12.777Z,8.05
2022-12-08T16:35:42.573Z,9.27
2022-12-08T16:38:15.789Z,11.90
2022-12-08T16:41:07.902Z,9.10
2022-12-08T16:43:36.950Z,9.85
2022-12-08T16:46:05.706Z,9.45
2022-12-08T16:48:35.057Z,10.87
2022-12-08T16:51:04.696Z,11.88
2022-12-08T16:53:33.675Z,9.02
2022-12-08T16:56:04.040Z,10.30
2022-12-08T16:58:33.018Z,11.52
2022-12-08T17:01:01.842Z,11.10
2022-12-08T17:03:31.470Z,11.55
2022-12-08T17:06:00.136Z,11.35
2022-12-08T17:08:29.200Z,11.32
2022-12-08T17:11:08.491Z,12.90
2022-12-08T17:13:42.980Z,11.33
2022-12-08T17:16:15.681Z,11.13
2022-12-08T17:18:44.885Z,11.27
2022-12-08T17:21:15.006Z,12.40
2022-12-08T17:23:45.274Z,12.35
2022-12-08T17:26:14.473Z,14.37
2022-12-08T17:29:00.155Z,12.68
2022-12-08T17:31:31.703Z,12.75
2022-12-08T17:34:03.211Z,12.02
2022-12-08T17:36:32.795Z,13.15
2022-12-08T17:39:02.362Z,13.70
2022-12-08T17:41:31.507Z,12.75
2022-12-08T17:44:01.671Z,13.07
2022-12-08T17:46:30.923Z,14.35
2022-12-08T17:48:59.534Z,15.43
2022-12-08T17:51:28.644Z,17.60
2022-12-08T17:53:57.356Z,15.82
2022-12-08T17:56:26.169Z,12.75
2022-12-08T17:58:55.505Z,13.95
2022-12-08T18:01:27.734Z,16.33
2022-12-08T18:03:56.610Z,13.83
2022-12-08T18:06:29.635Z,13.75
2022-12-08T18:09:01.796Z,14.75
2022-12-08T18:11:31.237Z,13.48
2022-12-08T18:14:00.238Z,14.85
2022-12-08T18:16:30.751Z,12.73
2022-12-08T18:18:59.828Z,13.95
2022-12-08T18:21:29.958Z,13.27
2022-12-08T18:23:58.813Z,13.50
2022-12-08T18:26:27.541Z,13.70
2022-12-08T18:28:56.579Z,12.27
2022-12-08T18:31:26.070Z,12.45
2022-12-08T18:33:56.846Z,15.20
2022-12-08T18:36:26.894Z,13.23
2022-12-08T18:38:55.981Z,13.77
2022-12-08T18:41:26.892Z,13.80
2022-12-08T18:43:57.454Z,13.32
2022-12-08T18:46:27.312Z,12.43
2022-12-08T18:48:58.347Z,13.57
2022-12-08T18:51:27.260Z,13.80
2022-12-08T18:53:55.917Z,13.83
2022-12-08T18:56:27.138Z,13.85
2022-12-08T18:59:02.866Z,11.35
2022-12-08T19:01:33.207Z,12.13
2022-12-08T19:04:27.373Z,14.82
2022-12-08T19:06:54.898Z,14.70
2022-12-08T19:09:24.710Z,14.80
2022-12-08T19:11:53.877Z,14.88
2022-12-08T19:14:27.755Z,12.68
2022-12-08T19:16:58.429Z,15.43
2022-12-08T19:19:29.549Z,14.97
2022-12-08T19:21:58.663Z,17.38
2022-12-08T19:24:27.564Z,15.27
2022-12-08T19:26:56.480Z,15.15
2022-12-08T19:29:25.225Z,17.90
2022-12-08T19:31:54.600Z,18.17
2022-12-08T19:34:23.456Z,16.27
2022-12-08T19:36:53.755Z,17.30
2022-12-08T19:39:42.112Z,18.35
2022-12-08T19:42:34.697Z,16.17
2022-12-08T19:45:11.419Z,15.23
2022-12-08T19:47:41.095Z,14.70
2022-12-08T19:50:28.651Z,15.20
2022-12-08T19:52:59.900Z,15.25
2022-12-08T19:55:29.105Z,14.98
2022-12-08T19:57:58.612Z,18.53
2022-12-08T20:00:27.675Z,17.60
2022-12-08T20:02:56.471Z,19.38
2022-12-08T20:05:26.075Z,19.92
2022-12-08T20:07:56.218Z,18.00
2022-12-08T20:10:29.203Z,21.30
2022-12-08T20:13:12.337Z,22.90
2022-12-08T20:15:42.196Z,21.38
2022-12-08T20:18:11.191Z,22.67
2022-12-08T20:20:40.619Z,28.27
2022-12-08T20:23:09.798Z,33.77
2022-12-08T20:25:41.159Z,25.33
2022-12-08T20:28:10.939Z,36.78
2022-12-08T20:30:40.043Z,26.63
2022-12-08T20:33:09.614Z,22.90
2022-12-08T20:35:38.231Z,19.57
2022-12-08T20:38:07.279Z,19.88
2022-12-08T20:40:36.399Z,23.35
2022-12-08T20:43:06.843Z,20.80
2022-12-08T20:45:35.439Z,16.75
2022-12-08T20:48:04.605Z,20.27
2022-12-08T20:50:33.357Z,27.60
2022-12-08T20:53:02.548Z,21.20
2022-12-08T20:55:31.495Z,20.73
2022-12-08T20:58:00.509Z,18.00
2022-12-08T21:00:31.033Z,17.83
2022-12-08T21:03:01.100Z,19.92
2022-12-08T21:05:30.218Z,31.05
2022-12-08T21:07:59.208Z,21.60
2022-12-08T21:10:28.279Z,20.95
2022-12-08T21:12:57.357Z,20.97
2022-12-08T21:15:26.310Z,21.35
2022-12-08T21:17:56.623Z,24.77
2022-12-08T21:20:25.706Z,22.55
2022-12-08T21:22:54.585Z,18.70
2022-12-08T21:25:23.471Z,20.73
2022-12-08T21:27:52.603Z,22.27
2022-12-08T21:30:21.477Z,19.15
2022-12-08T21:32:50.583Z,23.77
2022-12-08T21:35:20.705Z,18.60
2022-12-08T21:37:49.873Z,22.33
2022-12-08T21:40:19.213Z,20.52
2022-12-08T21:42:50.146Z,21.73
2022-12-08T21:45:21.021Z,19.88
2022-12-08T21:47:51.195Z,20.42
2022-12-08T21:50:21.812Z,21.90
2022-12-08T21:52:51.024Z,21.20
2022-12-08T21:55:20.476Z,23.83
2022-12-08T21:57:49.612Z,25.60
2022-12-08T22:00:19.952Z,27.45
2022-12-08T22:02:49.389Z,23.20
2022-12-08T22:05:18.432Z,23.65
2022-12-08T22:07:48.930Z,26.30
2022-12-08T22:10:21.189Z,31.13
2022-12-08T22:12:50.808Z,30.02
2022-12-08T22:15:19.611Z,27.63
2022-12-08T22:17:48.547Z,28.25
2022-12-08T22:20:17.714Z,30.00
2022-12-08T22:22:46.934Z,26.35
2022-12-08T22:25:17.678Z,26.48
2022-12-08T22:27:46.437Z,28.30
2022-12-08T22:30:15.400Z,23.25
2022-12-08T22:33:04.400Z,27.98
2022-12-08T22:35:38.948Z,25.70
2022-12-08T22:38:07.784Z,25.88
2022-12-08T22:40:41.349Z,24.80
2022-12-08T22:43:24.266Z,24.27
2022-12-08T22:45:53.628Z,24.35
2022-12-08T22:48:22.524Z,21.90
2022-12-08T22:51:02.453Z,26.65
2022-12-08T22:53:34.995Z,26.17
2022-12-08T22:56:18.672Z,25.58
2022-12-08T22:58:47.920Z,26.48
2022-12-08T23:01:29.388Z,23.58
2022-12-08T23:04:02.382Z,24.67
2022-12-08T23:06:40.982Z,25.07
2022-12-08T23:09:10.469Z,24.52
2022-12-08T23:11:40.678Z,26.48
2022-12-08T23:14:09.566Z,20.55
2022-12-08T23:16:38.521Z,21.52
2022-12-08T23:19:08.618Z,20.33
2022-12-08T23:21:37.361Z,21.33
2022-12-08T23:24:06.995Z,24.40
2022-12-08T23:26:36.088Z,22.17
2022-12-08T23:29:06.654Z,21.20
2022-12-08T23:31:36.163Z,20.63
2022-12-08T23:34:05.082Z,22.17
2022-12-08T23:36:33.607Z,20.33
2022-12-08T23:39:02.658Z,20.67
2022-12-08T23:41:31.196Z,23.65
2022-12-08T23:44:00.748Z,23.50
2022-12-08T23:46:31.088Z,23.95
2022-12-08T23:49:00.342Z,21.10
2022-12-08T23:51:28.982Z,24.55
2022-12-08T23:53:58.005Z,23.33
2022-12-08T23:56:30.462Z,22.37
2022-12-08T23:59:01.384Z,23.38
